createdAt,value
2022-09-28T00:01:24.150Z,10.30
2022-09-28T00:04:12.104Z,10.17
2022-09-28T00:06:59.569Z,10.23
2022-09-28T00:09:46.418Z,9.77
2022-09-28T00:12:33.697Z,10.77
2022-09-28T00:15:20.698Z,9.70
2022-09-28T00:18:07.630Z,9.70
2022-09-28T00:21:05.671Z,9.60
2022-09-28T00:24:12.945Z,8.93
2022-09-28T00:27:01.556Z,9.80
2022-09-28T00:29:48.471Z,10.10
2022-09-28T00:32:35.695Z,9.50
2022-09-28T00:35:22.556Z,9.50
2022-09-28T00:38:09.454Z,9.97
2022-09-28T00:40:56.704Z,9.17
2022-09-28T00:43:43.629Z,9.63
2022-09-28T00:46:34.688Z,9.30
2022-09-28T00:49:32.113Z,8.77
2022-09-28T00:52:42.082Z,8.93
2022-09-28T00:55:44.547Z,9.63
2022-09-28T00:58:34.737Z,10.90
2022-09-28T01:01:22.308Z,10.50
2022-09-28T01:04:09.280Z,10.03
2022-09-28T01:06:57.982Z,10.20
2022-09-28T01:09:45.810Z,9.83
2022-09-28T01:12:32.745Z,11.20
2022-09-28T01:15:21.784Z,11.27
2022-09-28T01:18:15.208Z,11.70
2022-09-28T01:21:09.116Z,10.73
2022-09-28T01:23:58.840Z,11.17
2022-09-28T01:27:04.657Z,12.03
2022-09-28T01:30:16.521Z,11.20
2022-09-28T01:33:10.337Z,12.13
2022-09-28T01:36:03.863Z,12.73
2022-09-28T01:38:55.792Z,14.13
2022-09-28T01:41:45.889Z,14.17
2022-09-28T01:44:39.812Z,12.63
2022-09-28T01:47:29.718Z,12.63
2022-09-28T01:50:20.855Z,12.57
2022-09-28T01:53:35.651Z,12.37
2022-09-28T01:56:27.964Z,11.70
2022-09-28T01:59:22.873Z,12.97
2022-09-28T02:02:25.712Z,13.57
2022-09-28T02:05:29.541Z,11.77
2022-09-28T02:08:26.806Z,12.10
2022-09-28T02:11:16.131Z,11.90
2022-09-28T02:14:10.852Z,13.00
2022-09-28T02:16:58.384Z,12.87
2022-09-28T02:19:45.297Z,13.83
2022-09-28T02:22:40.512Z,14.63
2022-09-28T02:25:39.564Z,14.90
2022-09-28T02:28:26.510Z,13.93
2022-09-28T02:31:13.420Z,14.77
2022-09-28T02:34:00.457Z,14.23
2022-09-28T02:36:47.585Z,14.67
2022-09-28T02:39:34.493Z,14.10
2022-09-28T02:42:27.234Z,13.90
2022-09-28T02:45:24.097Z,14.00
2022-09-28T02:48:43.273Z,14.27
2022-09-28T02:51:43.231Z,13.60
2022-09-28T02:54:55.418Z,14.23
2022-09-28T02:57:51.475Z,14.53
2022-09-28T03:01:01.678Z,14.20
2022-09-28T03:04:04.531Z,14.07
2022-09-28T03:07:19.911Z,14.90
2022-09-28T03:10:47.384Z,14.40
2022-09-28T03:13:35.103Z,13.43
2022-09-28T03:16:22.069Z,13.27
2022-09-28T03:19:09.003Z,14.57
2022-09-28T03:21:55.875Z,14.13
2022-09-28T03:24:42.743Z,14.00
2022-09-28T03:27:29.617Z,13.40
2022-09-28T03:30:16.610Z,14.27
2022-09-28T03:33:04.264Z,14.23
2022-09-28T03:35:51.553Z,15.07
2022-09-28T03:38:38.808Z,13.07
2022-09-28T03:41:27.800Z,14.03
2022-09-28T03:44:14.727Z,13.40
2022-09-28T03:47:01.720Z,13.17
2022-09-28T03:49:48.967Z,14.63
2022-09-28T03:52:35.824Z,12.40
2022-09-28T03:55:22.732Z,16.83
2022-09-28T03:58:09.621Z,16.23
2022-09-28T04:01:05.138Z,16.20
2022-09-28T04:03:55.919Z,16.17
2022-09-28T04:06:43.156Z,16.17
2022-09-28T04:09:30.029Z,15.83
2022-09-28T04:12:16.942Z,15.37
2022-09-28T04:15:04.184Z,15.50
2022-09-28T04:17:52.092Z,15.37
2022-09-28T04:20:41.399Z,16.07
2022-09-28T04:23:28.275Z,15.30
2022-09-28T04:26:22.882Z,15.80
2022-09-28T04:29:16.639Z,16.50
2022-09-28T04:32:03.900Z,15.00
2022-09-28T04:34:51.816Z,15.17
2022-09-28T04:37:38.691Z,15.07
2022-09-28T04:40:25.605Z,14.50
2022-09-28T04:43:12.498Z,15.60
2022-09-28T04:46:01.110Z,16.20
2022-09-28T04:48:48.086Z,15.87
2022-09-28T04:51:34.971Z,15.00
2022-09-28T04:54:21.897Z,15.17
2022-09-28T04:57:09.010Z,16.07
2022-09-28T04:59:55.920Z,17.50
2022-09-28T05:02:42.855Z,16.73
2022-09-28T05:05:29.815Z,18.93
2022-09-28T05:08:17.442Z,17.40
2022-09-28T05:11:06.713Z,17.33
2022-09-28T05:13:53.733Z,17.83
2022-09-28T05:16:40.804Z,17.73
2022-09-28T05:19:27.834Z,18.30
2022-09-28T05:22:15.779Z,17.13
2022-09-28T05:25:02.867Z,18.00
2022-09-28T05:27:55.987Z,16.87
2022-09-28T05:30:42.894Z,16.67
2022-09-28T05:33:30.988Z,16.97
2022-09-28T05:36:17.921Z,19.23
2022-09-28T05:39:05.080Z,18.40
2022-09-28T05:41:52.019Z,19.20
2022-09-28T05:44:38.900Z,17.90
2022-09-28T05:47:27.087Z,18.40
2022-09-28T05:50:15.953Z,18.37
2022-09-28T05:53:06.260Z,19.63
2022-09-28T05:55:57.012Z,19.50
2022-09-28T05:58:43.929Z,23.53
2022-09-28T06:01:30.898Z,20.50
2022-09-28T06:04:17.955Z,20.20
2022-09-28T06:07:04.960Z,18.30
2022-09-28T06:09:51.911Z,18.63
2022-09-28T06:12:38.822Z,18.67
2022-09-28T06:15:27.797Z,17.30
2022-09-28T06:18:14.922Z,18.47
2022-09-28T06:21:02.711Z,18.23
2022-09-28T06:23:49.665Z,17.30
2022-09-28T06:26:36.608Z,16.97
2022-09-28T06:29:23.493Z,17.70
2022-09-28T06:32:12.288Z,16.23
2022-09-28T06:34:59.192Z,16.70
2022-09-28T06:37:46.287Z,16.83
2022-09-28T06:40:34.120Z,17.10
2022-09-28T06:43:21.635Z,16.40
2022-09-28T06:46:10.003Z,15.80
2022-09-28T06:48:56.931Z,15.60
2022-09-28T06:51:45.699Z,14.50
2022-09-28T06:54:32.716Z,15.40
2022-09-28T06:57:19.632Z,14.30
2022-09-28T07:00:07.125Z,14.00
2022-09-28T07:02:54.092Z,13.07
2022-09-28T07:05:44.453Z,12.33
2022-09-28T07:08:31.501Z,12.60
2022-09-28T07:11:20.319Z,12.73
2022-09-28T07:14:12.276Z,13.80
2022-09-28T07:17:12.313Z,12.93
2022-09-28T07:20:12.525Z,14.67
2022-09-28T07:23:17.182Z,14.10
2022-09-28T07:26:08.545Z,13.80
2022-09-28T07:28:56.233Z,13.27
2022-09-28T07:31:43.118Z,13.07
2022-09-28T07:34:30.088Z,13.90
2022-09-28T07:37:18.838Z,13.87
2022-09-28T07:40:25.711Z,14.03
2022-09-28T07:43:16.973Z,13.40
2022-09-28T07:46:04.423Z,13.50
2022-09-28T07:48:51.730Z,13.60
2022-09-28T07:51:38.664Z,13.23
2022-09-28T07:54:25.656Z,12.20
2022-09-28T07:57:12.556Z,13.73
2022-09-28T08:00:00.598Z,13.37
2022-09-28T08:02:48.322Z,14.67
2022-09-28T08:05:35.798Z,13.13
2022-09-28T08:08:22.686Z,12.00
2022-09-28T08:11:11.141Z,14.10
2022-09-28T08:14:00.042Z,13.70
2022-09-28T08:16:49.543Z,12.20
2022-09-28T08:19:57.809Z,13.20
2022-09-28T08:22:45.241Z,11.30
2022-09-28T08:25:32.106Z,12.43
2022-09-28T08:28:19.291Z,13.00
2022-09-28T08:31:07.286Z,12.13
2022-09-28T08:33:54.378Z,12.67
2022-09-28T08:36:41.259Z,13.13
2022-09-28T08:39:28.159Z,13.50
2022-09-28T08:42:15.621Z,12.33
2022-09-28T08:45:09.119Z,13.17
2022-09-28T08:48:23.487Z,13.10
2022-09-28T08:51:20.375Z,13.43
2022-09-28T08:54:18.628Z,13.80
2022-09-28T08:57:15.335Z,12.17
2022-09-28T09:00:08.194Z,10.60
2022-09-28T09:02:57.948Z,11.63
2022-09-28T09:06:02.702Z,12.27
2022-09-28T09:09:09.075Z,10.97
2022-09-28T09:12:22.823Z,10.90
2022-09-28T09:15:40.489Z,11.93
2022-09-28T09:18:38.036Z,11.97
2022-09-28T09:21:41.902Z,11.30
2022-09-28T09:24:55.157Z,12.37
2022-09-28T09:27:52.060Z,11.60
2022-09-28T09:31:10.618Z,12.20
2022-09-28T09:34:17.763Z,11.63
2022-09-28T09:37:39.993Z,11.97
2022-09-28T09:40:44.341Z,10.87
2022-09-28T09:44:04.259Z,9.40
2022-09-28T09:47:06.055Z,10.43
2022-09-28T09:50:05.318Z,10.20
2022-09-28T09:53:24.945Z,9.50
2022-09-28T09:56:20.919Z,9.33
2022-09-28T09:59:33.630Z,9.10
2022-09-28T10:02:24.551Z,8.90
2022-09-28T10:05:11.435Z,9.23
2022-09-28T10:08:09.495Z,11.27
2022-09-28T10:11:09.358Z,9.90
2022-09-28T10:13:57.688Z,9.97
2022-09-28T10:16:48.418Z,10.50
2022-09-28T10:19:36.512Z,11.53
2022-09-28T10:22:27.318Z,9.63
2022-09-28T10:25:15.366Z,9.70
2022-09-28T10:28:06.131Z,9.97
2022-09-28T10:30:53.143Z,10.67
2022-09-28T10:33:40.105Z,9.97
2022-09-28T10:36:27.610Z,10.87
2022-09-28T10:39:48.103Z,10.53
2022-09-28T10:42:36.127Z,8.50
2022-09-28T10:45:23.673Z,8.50
2022-09-28T10:48:20.839Z,8.43
2022-09-28T10:51:08.238Z,8.20
2022-09-28T10:54:02.787Z,9.37
2022-09-28T10:56:50.740Z,9.27
2022-09-28T10:59:40.627Z,9.83
2022-09-28T11:02:35.774Z,8.70
2022-09-28T11:05:28.893Z,8.73
2022-09-28T11:08:18.930Z,8.87
2022-09-28T11:11:07.909Z,7.97
2022-09-28T11:14:00.981Z,7.90
2022-09-28T11:16:47.944Z,8.47
2022-09-28T11:19:35.533Z,7.97
2022-09-28T11:22:28.635Z,8.00
2022-09-28T11:25:18.476Z,7.23
2022-09-28T11:28:05.542Z,7.17
2022-09-28T11:30:53.322Z,7.40
2022-09-28T11:33:44.735Z,7.60
2022-09-28T11:36:47.205Z,7.50
2022-09-28T11:39:48.897Z,8.00
2022-09-28T11:42:50.798Z,7.90
2022-09-28T11:46:07.213Z,7.97
2022-09-28T11:49:20.583Z,8.37
2022-09-28T11:52:14.546Z,8.07
2022-09-28T11:55:10.278Z,11.37
2022-09-28T11:58:10.086Z,9.10
2022-09-28T12:01:15.400Z,8.10
2022-09-28T12:04:41.766Z,8.17
2022-09-28T12:07:40.336Z,8.37
2022-09-28T12:10:45.566Z,8.27
2022-09-28T12:13:39.804Z,7.77
2022-09-28T12:17:04.992Z,8.43
2022-09-28T12:20:01.570Z,7.03
2022-09-28T12:22:59.746Z,7.10
2022-09-28T12:25:53.275Z,7.37
2022-09-28T12:28:45.806Z,7.33
2022-09-28T12:31:42.250Z,6.67
2022-09-28T12:34:29.132Z,7.90
2022-09-28T12:37:29.039Z,7.57
2022-09-28T12:40:32.341Z,7.60
2022-09-28T12:43:40.908Z,7.40
2022-09-28T12:46:46.642Z,7.87
2022-09-28T12:50:37.038Z,7.00
2022-09-28T12:53:23.450Z,7.27
2022-09-28T12:56:24.387Z,8.07
2022-09-28T12:59:33.771Z,8.00
2022-09-28T13:03:00.777Z,7.30
2022-09-28T13:05:59.070Z,7.13
2022-09-28T13:09:24.971Z,7.43
2022-09-28T13:12:19.772Z,7.43
2022-09-28T13:15:38.150Z,7.03
2022-09-28T13:18:26.059Z,8.20
2022-09-28T13:21:29.837Z,8.63
2022-09-28T13:24:32.858Z,8.60
2022-09-28T13:27:31.508Z,7.37
2022-09-28T13:30:19.327Z,7.67
2022-09-28T13:33:10.524Z,7.80
2022-09-28T13:35:57.451Z,7.50
2022-09-28T13:38:49.698Z,7.27
2022-09-28T13:41:38.532Z,7.10
2022-09-28T13:44:50.696Z,7.80
2022-09-28T13:48:11.644Z,7.47
2022-09-28T13:51:07.646Z,7.20
2022-09-28T13:54:25.366Z,7.20
2022-09-28T13:57:34.386Z,6.87
2022-09-28T14:00:30.528Z,7.30
2022-09-28T14:03:44.153Z,6.60
2022-09-28T14:06:32.810Z,6.30
2022-09-28T14:09:40.890Z,6.77
2022-09-28T14:12:33.596Z,6.17
2022-09-28T14:15:29.363Z,6.77
2022-09-28T14:18:20.467Z,6.07
2022-09-28T14:21:40.983Z,7.30
2022-09-28T14:25:05.699Z,6.40
2022-09-28T14:28:26.815Z,4.23
2022-09-28T14:31:23.813Z,3.30
2022-09-28T14:34:25.652Z,3.13
2022-09-28T14:37:43.361Z,4.43
2022-09-28T14:40:54.786Z,4.50
2022-09-28T14:43:44.743Z,4.83
2022-09-28T14:46:44.307Z,5.30
2022-09-28T14:49:34.120Z,5.70
2022-09-28T14:52:39.764Z,7.10
2022-09-28T14:55:32.724Z,6.40
2022-09-28T14:58:26.647Z,18.73
2022-09-28T15:01:20.303Z,33.23
2022-09-28T15:04:11.511Z,24.17
2022-09-28T15:06:59.199Z,10.00
2022-09-28T15:09:49.554Z,13.00
2022-09-28T15:12:36.508Z,8.90
2022-09-28T15:15:38.702Z,6.50
2022-09-28T15:18:33.823Z,6.37
2022-09-28T15:21:21.402Z,6.17
2022-09-28T15:25:00.010Z,6.17
2022-09-28T15:27:54.871Z,3.87
2022-09-28T15:30:41.786Z,3.80
2022-09-28T15:33:52.681Z,4.50
2022-09-28T15:36:42.109Z,3.80
2022-09-28T15:39:32.198Z,3.63
2022-09-28T15:42:19.367Z,3.37
2022-09-28T15:45:25.383Z,2.87
2022-09-28T15:48:18.634Z,2.93
2022-09-28T15:51:10.828Z,2.70
2022-09-28T15:54:00.912Z,2.30
2022-09-28T15:56:59.729Z,2.43
2022-09-28T15:59:56.739Z,2.27
2022-09-28T16:03:00.793Z,2.07
2022-09-28T16:06:05.483Z,2.37
2022-09-28T16:08:52.451Z,2.37
2022-09-28T16:11:40.791Z,2.60
2022-09-28T16:14:27.751Z,2.80
2022-09-28T16:17:32.416Z,2.83
2022-09-28T16:20:35.473Z,3.10
2022-09-28T16:23:33.139Z,3.53
2022-09-28T16:26:35.580Z,3.83
2022-09-28T16:29:27.181Z,3.57
2022-09-28T16:32:26.326Z,3.60
2022-09-28T16:35:18.651Z,3.40
2022-09-28T16:38:16.915Z,3.37
2022-09-28T16:41:04.453Z,2.80
2022-09-28T16:43:56.335Z,3.10
2022-09-28T16:46:44.682Z,4.80
2022-09-28T16:49:32.847Z,3.97
2022-09-28T16:52:39.700Z,2.90
2022-09-28T16:55:39.917Z,3.30
2022-09-28T16:58:28.869Z,3.50
2022-09-28T17:01:15.864Z,2.73
2022-09-28T17:04:03.243Z,3.03
2022-09-28T17:06:53.575Z,2.93
2022-09-28T17:09:40.549Z,2.70
2022-09-28T17:12:29.174Z,2.90
2022-09-28T17:15:18.759Z,3.00
2022-09-28T17:18:06.875Z,2.37
2022-09-28T17:20:56.670Z,4.63
2022-09-28T17:23:44.811Z,8.70
2022-09-28T17:26:33.381Z,6.03
2022-09-28T17:29:20.448Z,4.73
2022-09-28T17:32:21.735Z,3.20
2022-09-28T17:35:23.494Z,3.47
2022-09-28T17:38:12.993Z,3.00
2022-09-28T17:40:59.957Z,2.60
2022-09-28T17:43:47.469Z,2.80
2022-09-28T17:46:38.347Z,2.70
2022-09-28T17:49:26.589Z,2.50
2022-09-28T17:52:13.641Z,2.20
2022-09-28T17:55:00.503Z,2.20
2022-09-28T17:57:47.593Z,2.70
2022-09-28T18:00:35.547Z,2.67
2022-09-28T18:03:24.834Z,2.77
2022-09-28T18:06:19.705Z,2.90
2022-09-28T18:09:08.552Z,2.97
2022-09-28T18:12:03.199Z,2.80
2022-09-28T18:14:50.402Z,3.00
2022-09-28T18:17:38.121Z,3.07
2022-09-28T18:20:25.575Z,2.87
2022-09-28T18:23:13.012Z,3.43
2022-09-28T18:25:59.956Z,3.27
2022-09-28T18:28:46.977Z,3.27
2022-09-28T18:31:34.094Z,3.90
2022-09-28T18:34:21.026Z,3.63
2022-09-28T18:37:08.385Z,3.80
2022-09-28T18:39:55.423Z,3.60
2022-09-28T18:42:42.537Z,3.80
2022-09-28T18:45:29.809Z,4.07
2022-09-28T18:48:16.726Z,4.30
2022-09-28T18:51:08.448Z,4.90
2022-09-28T18:53:55.760Z,4.47
2022-09-28T18:56:42.861Z,3.97
2022-09-28T18:59:30.086Z,3.20
2022-09-28T19:02:17.163Z,3.10
2022-09-28T19:05:05.619Z,3.30
2022-09-28T19:07:52.938Z,3.40
2022-09-28T19:10:39.857Z,3.10
2022-09-28T19:13:28.331Z,3.70
2022-09-28T19:16:21.178Z,3.40
2022-09-28T19:19:12.236Z,3.70
2022-09-28T19:21:59.436Z,3.60
2022-09-28T19:24:46.426Z,3.43
2022-09-28T19:27:33.458Z,3.87
2022-09-28T19:30:20.345Z,4.20
2022-09-28T19:33:07.283Z,4.40
2022-09-28T19:35:58.945Z,6.40
2022-09-28T19:38:46.289Z,5.27
2022-09-28T19:41:44.303Z,6.00
2022-09-28T19:44:33.391Z,6.17
2022-09-28T19:47:21.624Z,7.23
2022-09-28T19:50:10.166Z,5.70
2022-09-28T19:53:01.531Z,5.13
2022-09-28T19:55:53.660Z,3.90
2022-09-28T19:58:40.600Z,4.17
2022-09-28T20:01:31.480Z,4.83
2022-09-28T20:04:18.804Z,4.60
2022-09-28T20:07:05.912Z,4.23
2022-09-28T20:09:52.843Z,4.87
2022-09-28T20:12:42.096Z,4.80
2022-09-28T20:15:29.073Z,4.23
2022-09-28T20:18:16.457Z,3.90
2022-09-28T20:21:05.551Z,4.50
2022-09-28T20:23:59.146Z,3.83
2022-09-28T20:26:46.263Z,3.70
2022-09-28T20:29:33.367Z,4.37
2022-09-28T20:32:20.999Z,4.00
2022-09-28T20:35:08.375Z,4.40
2022-09-28T20:37:59.124Z,5.60
2022-09-28T20:40:46.660Z,4.80
2022-09-28T20:43:34.832Z,4.67
2022-09-28T20:46:22.175Z,5.40
2022-09-28T20:49:09.227Z,5.63
2022-09-28T20:51:56.142Z,4.70
2022-09-28T20:54:43.075Z,4.80
2022-09-28T20:57:30.008Z,4.90
2022-09-28T21:00:17.012Z,5.57
2022-09-28T21:03:04.078Z,5.83
2022-09-28T21:05:51.533Z,7.70
2022-09-28T21:08:38.427Z,8.87
2022-09-28T21:11:27.990Z,9.07
2022-09-28T21:14:15.047Z,8.50
2022-09-28T21:17:01.984Z,7.30
2022-09-28T21:19:48.913Z,8.67
2022-09-28T21:22:35.824Z,9.13
2022-09-28T21:25:22.849Z,10.03
2022-09-28T21:28:09.803Z,10.60
2022-09-28T21:30:56.799Z,7.63
2022-09-28T21:33:43.756Z,8.03
2022-09-28T21:36:31.111Z,7.83
2022-09-28T21:39:18.728Z,8.67
2022-09-28T21:42:05.786Z,7.67
2022-09-28T21:44:56.299Z,8.87
2022-09-28T21:47:52.718Z,8.70
2022-09-28T21:50:39.762Z,8.70
2022-09-28T21:53:29.677Z,8.43
2022-09-28T21:56:16.617Z,9.50
2022-09-28T21:59:03.610Z,9.30
2022-09-28T22:01:50.629Z,8.93
2022-09-28T22:04:37.853Z,9.83
2022-09-28T22:07:25.030Z,10.33
2022-09-28T22:10:14.095Z,9.53
2022-09-28T22:13:01.462Z,9.00
2022-09-28T22:15:53.378Z,10.10
2022-09-28T22:18:41.055Z,10.87
2022-09-28T22:21:31.859Z,11.20
2022-09-28T22:24:18.830Z,10.10
2022-09-28T22:27:05.846Z,10.80
2022-09-28T22:29:52.746Z,10.57
2022-09-28T22:32:39.667Z,11.20
2022-09-28T22:35:26.577Z,11.53
2022-09-28T22:38:13.504Z,10.03
2022-09-28T22:41:02.458Z,10.67
2022-09-28T22:43:50.738Z,10.77
2022-09-28T22:46:37.745Z,11.77
2022-09-28T22:49:25.050Z,10.23
2022-09-28T22:52:11.971Z,11.43
2022-09-28T22:54:58.921Z,10.73
2022-09-28T22:57:45.887Z,10.93
2022-09-28T23:00:32.846Z,10.30
2022-09-28T23:03:19.749Z,11.17
2022-09-28T23:06:07.789Z,10.83
2022-09-28T23:08:54.781Z,10.23
2022-09-28T23:11:41.711Z,9.80
2022-09-28T23:14:28.633Z,11.00
2022-09-28T23:17:15.551Z,10.73
2022-09-28T23:20:02.862Z,10.73
2022-09-28T23:22:50.097Z,10.00
2022-09-28T23:25:37.009Z,10.63
2022-09-28T23:28:25.426Z,10.87
2022-09-28T23:31:16.061Z,10.77
2022-09-28T23:34:06.351Z,10.63
2022-09-28T23:36:53.548Z,11.03
2022-09-28T23:39:40.476Z,11.07
2022-09-28T23:42:27.400Z,12.00
2022-09-28T23:45:14.337Z,11.57
2022-09-28T23:48:01.613Z,11.93
2022-09-28T23:50:48.547Z,11.43
2022-09-28T23:53:35.530Z,12.33
2022-09-28T23:56:22.461Z,11.60
2022-09-28T23:59:09.406Z,10.83
